Ana Sayfa
METAR-TAF:

METAR-TAF

Havaalanları :

Pilanesberg International Airport

Sun City, Güney Afrika

Enlem: 25-20-01S, Boylam: 027-10-24E, yükseklik: 1040 m

Güncel hava durumu gözlemi

Rapor saat 01:00 UTC de 3 saat ve 37 dakika önce yapıldı.
Rüzgar güneybatıdan 3 kt
Sıcaklık 16°C
Nem 88%
Basınç 1022 hPa

METAR: FAPN 190100Z AUTO 22003KT //// // ////// 16/14 Q1022

Saat: 06:37 (04:37 UTC)


TAF: eksik

4.000'den fazla havaalanı için hava durumu gözlemleri ve tahminleri (METAR ve TAF raporları).

Kullanılabilir istasyonlar harita üzerinde sarı ve kırmızı noktalarla gösterilir.

İstasyonun adını görmek için fareyi noktanın üzerinde gezdirin.

Sonrasında hava gözlem ve tahminlerini görmek için tıklayın.

Haritayı değiştirmek için: yaklaştırmak için siyah artı işaretli yeşil düğmeye ve uzaklaştırmak için de eksi işaretli düğmeye hızla tıklayın; bitişik haritalar için yeşil okları kullanın.


METAR-TAF: